Terminal Aerodrome Forecast
Issued by NWS

Home | Current Version | Previous Version | Text Only | Print | Product List | Glossary Off
Versions: 1 2 3 4 5 6 7 8 9 10 11 12 13 14 15 16 17 18 19 20 21 22 23 24 25

000
FTUS43 KTOP 191930 AAA
TAFFOE
TAF AMD
KFOE 191930Z 1920/2018 33011KT 6SM BR OVC007
     FM192100 33007KT P6SM VCSH OVC011
     FM200200 03008KT P6SM -SHRA OVC020
     FM200600 08008KT P6SM -RA OVC009 WS020/19035KT
     FM201200 30009KT 5SM -FZRA BR OVC007
     FM201500 33011KT P6SM OVC010=

USA.gov is the U.S. government's official web portal to all federal, state and local government web resources and services.